Tupelo Regional Airport
KTUP : now visible

Airfield :











YOU CAN JOIN US ON...

 
LOGIN :

Register | Disclaimer

   EN    FR    IT 

 









Legend :    VFR   Marginal VFR   IFR   Intensive IFR   Very Intensive IFR
Visi :
Ceiling :
>= 8 km
>= 3000ft
5 to 8 km
1000 to 3000 ft
1500m to 5 km
500 to 1000 ft
800 to 1500m
200 to 500 ft
< 800m
< 200 ft
Symbols :   Thunderstorms  Fog  Heavy snow  Heavy precipitations  Wind > 20 kt






- Airport Elevation : 346 ft
- IATA code : TUP


KTUP - Tupelo Regional

CURRENT METAR :
  • 152353Z 19003KT 10SM FEW010 OVC013 20/18 A2989 RMK AO2 SLP118 60010 T02000183 10211 20194 53001 $

EXPIRED METARs :
  • 152253Z 21004KT 10SM BKN014 21/18 A2989 RMK AO2 SLP119 T02060183 $
  • 152153Z 15005KT 10SM FEW012 21/18 A2988 RMK AO2 RAB13E24 SLP117 P0001 T02060183 $
  • 152134Z 12004KT 10SM SCT010 BKN013 21/18 A2990 RMK AO2 RAB13E24 P0000 T02060183 $

TAF KTUP
Valid from the 16 at 00:00 until the 17 at 00:00 UTC


152339Z 1600/1624 21004KT P6SM VCSH SCT008 OVC014
FM160700 01011G18KT P6SM -SHRA BKN008 OVC015
FM161200 01014G20KT P6SM SKC
FM162000 01008KT P6SM SKC



MET'MAP, your aeronautical weather chart ! - Copyright ORBIFLY December 2007 - Disclaimer

ORBIFLY MET'MAP TEAM :

Programming & Development : Alexandra Zaïnal
Concept & Development : Baudouin d'Aumeries
Co-Development & Prog : Marc-Olivier Méhu
Technical & hardware support : Manuel Goepfert

Contact : metmap@orbifly.com




SOURCES & CREDITS :

   NOAA       Earth
Advisory